Time;durP1;ratioP1;P1;durP2;ratioP2;P2;SDS_P1;SDS_P2;PMS_P1;PMS_P2;Temp;Humidity;BMP_temperature;BMP_pressure;BME280_temperature;BME280_humidity;BME280_pressure;Samples;Min_cycle;Max_cycle;Signal;HPM_P1;HPM_P2
2023/02/04 00:00:15;;;;;;;13.40;12.30;;;3.30;87.00;;;;;;5017126;28;20173;-91
2023/02/04 00:02:41;;;;;;;13.97;12.90;;;3.40;87.00;;;;;;5016633;28;20196;-91
2023/02/04 00:05:08;;;;;;;13.43;12.40;;;3.30;87.00;;;;;;5016461;28;20177;-92
2023/02/04 00:07:33;;;;;;;13.93;12.93;;;3.30;87.10;;;;;;5016921;28;20595;-92
2023/02/04 00:09:59;;;;;;;13.23;12.10;;;3.30;87.00;;;;;;5017549;28;20179;-92
2023/02/04 00:12:25;;;;;;;13.47;12.57;;;3.30;87.10;;;;;;5017689;28;20193;-92
2023/02/04 00:14:50;;;;;;;13.17;12.47;;;3.30;87.00;;;;;;5016647;28;20729;-92
2023/02/04 00:17:16;;;;;;;13.90;12.80;;;3.30;87.00;;;;;;5015792;28;20175;-92
2023/02/04 00:19:41;;;;;;;13.40;12.50;;;3.30;87.10;;;;;;5015478;28;20184;-92
2023/02/04 00:22:08;;;;;;;12.93;12.13;;;3.20;86.80;;;;;;5015928;28;20271;-92
2023/02/04 00:24:35;;;;;;;13.70;12.80;;;3.20;86.80;;;;;;5015802;28;20664;-92
2023/02/04 00:27:01;;;;;;;13.93;12.80;;;3.10;86.70;;;;;;5016745;28;20243;-93
2023/02/04 00:29:27;;;;;;;14.27;13.07;;;3.10;86.80;;;;;;5016210;28;20203;-92
2023/02/04 00:31:53;;;;;;;14.23;13.37;;;3.10;86.80;;;;;;5015334;28;20199;-92
2023/02/04 00:34:18;;;;;;;14.30;13.40;;;3.10;86.90;;;;;;5017110;28;20256;-91
2023/02/04 00:36:45;;;;;;;14.80;13.70;;;3.10;86.70;;;;;;5015350;28;20207;-92
2023/02/04 00:39:10;;;;;;;15.03;14.10;;;3.10;86.70;;;;;;5015394;28;20175;-91
2023/02/04 00:41:36;;;;;;;14.87;13.90;;;3.10;86.60;;;;;;5015289;28;20217;-92
2023/02/04 00:44:01;;;;;;;13.80;12.80;;;3.00;86.60;;;;;;5015101;28;20176;-92
2023/02/04 00:46:27;;;;;;;15.17;14.03;;;3.00;86.60;;;;;;5014865;28;20659;-91
2023/02/04 00:48:52;;;;;;;14.43;13.43;;;3.00;86.50;;;;;;5015192;28;20194;-91
2023/02/04 00:51:18;;;;;;;14.83;13.70;;;3.10;86.50;;;;;;5016086;28;20208;-91
2023/02/04 00:53:43;;;;;;;14.10;13.00;;;3.10;86.40;;;;;;5015192;28;20233;-91
2023/02/04 00:56:10;;;;;;;13.07;12.27;;;3.00;86.50;;;;;;5014852;28;20247;-91
2023/02/04 00:58:35;;;;;;;12.93;12.17;;;2.90;86.60;;;;;;5015255;28;20178;-91
2023/02/04 01:01:10;;;;;;;13.03;12.30;;;3.00;86.60;;;;;;5015351;28;20698;-91
2023/02/04 01:03:35;;;;;;;13.80;12.80;;;2.90;86.50;;;;;;5017308;28;20177;-92
2023/02/04 01:06:01;;;;;;;13.53;12.73;;;2.90;86.60;;;;;;5016797;28;20190;-91
2023/02/04 01:08:26;;;;;;;13.63;12.70;;;2.90;86.50;;;;;;5019260;28;20268;-92
2023/02/04 01:10:52;;;;;;;12.63;11.60;;;2.80;86.50;;;;;;5018708;28;20201;-91
2023/02/04 01:13:17;;;;;;;13.50;12.70;;;2.70;86.60;;;;;;5018506;28;20266;-92
2023/02/04 01:15:43;;;;;;;14.43;13.53;;;2.80;86.80;;;;;;5018572;28;20865;-92
2023/02/04 01:18:08;;;;;;;13.30;12.53;;;2.80;86.80;;;;;;5020169;28;20175;-92
2023/02/04 01:20:34;;;;;;;14.27;13.13;;;2.70;86.80;;;;;;5018337;28;20685;-92
2023/02/04 01:22:59;;;;;;;15.13;14.00;;;2.70;86.80;;;;;;5018344;28;20257;-92
2023/02/04 01:25:25;;;;;;;14.77;13.87;;;2.70;86.80;;;;;;5020032;28;20187;-92
2023/02/04 01:27:50;;;;;;;14.70;13.70;;;2.70;86.90;;;;;;5018898;28;20178;-92
2023/02/04 01:30:16;;;;;;;14.57;13.47;;;2.60;86.90;;;;;;5018558;28;20184;-92
2023/02/04 01:32:41;;;;;;;14.47;13.50;;;2.60;86.90;;;;;;5018290;28;20651;-92
2023/02/04 01:35:07;;;;;;;14.87;13.80;;;2.60;86.90;;;;;;5018119;28;20203;-92
2023/02/04 01:37:33;;;;;;;14.43;13.53;;;2.60;86.80;;;;;;5017982;28;20213;-91
2023/02/04 01:39:59;;;;;;;14.13;13.23;;;2.50;86.70;;;;;;5017102;28;20242;-91
2023/02/04 01:42:24;;;;;;;15.37;14.47;;;2.50;86.60;;;;;;5018385;28;20217;-91
2023/02/04 01:44:50;;;;;;;16.00;15.00;;;2.30;86.60;;;;;;5018731;28;20173;-91
2023/02/04 01:47:16;;;;;;;15.90;14.83;;;2.30;86.50;;;;;;5017304;28;20186;-92
2023/02/04 01:49:42;;;;;;;15.93;14.63;;;2.20;86.70;;;;;;5016978;28;20270;-92
2023/02/04 01:52:09;;;;;;;15.53;14.50;;;2.20;86.90;;;;;;5017100;28;20206;-92
2023/02/04 01:54:35;;;;;;;16.00;14.90;;;2.20;87.00;;;;;;5016908;28;20219;-91
2023/02/04 01:57:01;;;;;;;15.67;14.43;;;2.10;87.00;;;;;;5017810;28;20174;-92
2023/02/04 01:59:26;;;;;;;14.47;13.57;;;2.20;87.20;;;;;;5016617;28;20181;-91
2023/02/04 02:01:53;;;;;;;14.40;13.50;;;2.20;87.30;;;;;;5016372;28;20581;-92
2023/02/04 02:04:29;;;;;;;14.93;13.93;;;2.10;87.20;;;;;;5016663;28;20264;-91
2023/02/04 02:06:58;;;;;;;15.10;14.00;;;2.10;87.30;;;;;;5016245;28;20188;-91
2023/02/04 02:09:25;;;;;;;14.10;13.20;;;2.10;87.20;;;;;;5016399;28;20180;-92
2023/02/04 02:11:52;;;;;;;15.17;13.70;;;2.10;87.40;;;;;;5016231;28;20205;-92
2023/02/04 02:14:18;;;;;;;14.50;13.60;;;2.10;87.40;;;;;;5016233;28;20174;-91
2023/02/04 02:16:43;;;;;;;14.10;13.27;;;2.10;87.40;;;;;;5015507;28;20573;-92
2023/02/04 02:19:15;;;;;;;13.90;13.10;;;2.10;87.40;;;;;;5015396;28;20548;-91
2023/02/04 02:22:31;;;;;;;14.30;12.87;;;2.00;87.30;;;;;;5015650;28;20209;-91
2023/02/04 02:24:56;;;;;;;14.97;13.97;;;1.80;87.10;;;;;;4985935;28;20663;-91
2023/02/04 02:27:22;;;;;;;14.27;13.07;;;1.80;87.40;;;;;;5015333;28;20183;-91
2023/02/04 02:29:48;;;;;;;14.13;13.23;;;1.80;87.50;;;;;;5015299;28;20178;-91
2023/02/04 02:32:14;;;;;;;13.67;12.87;;;1.90;87.60;;;;;;5015865;28;20205;-91
2023/02/04 02:34:41;;;;;;;14.47;13.57;;;1.80;87.40;;;;;;5015244;28;20178;-91
2023/02/04 02:37:10;;;;;;;14.33;13.23;;;1.80;87.50;;;;;;5015131;28;20173;-92
2023/02/04 02:39:41;;;;;;;13.80;12.80;;;1.80;87.50;;;;;;5015012;28;20170;-91
2023/02/04 02:42:08;;;;;;;14.67;13.67;;;1.70;87.40;;;;;;5014798;28;20248;-91
2023/02/04 02:44:33;;;;;;;14.37;13.40;;;1.60;87.30;;;;;;5015112;28;20360;-91
2023/02/04 02:47:00;;;;;;;14.93;13.93;;;1.60;87.40;;;;;;5014778;28;20670;-91
2023/02/04 02:49:26;;;;;;;14.70;13.80;;;1.70;87.40;;;;;;5014603;28;20185;-91
2023/02/04 02:51:52;;;;;;;14.30;13.30;;;1.70;87.40;;;;;;5014561;28;20235;-91
2023/02/04 02:54:30;;;;;;;15.20;14.10;;;1.60;87.40;;;;;;5014435;28;20260;-91
2023/02/04 02:56:57;;;;;;;15.20;14.10;;;1.60;87.30;;;;;;5014639;28;20182;-91
2023/02/04 02:59:23;;;;;;;14.57;13.67;;;1.50;87.30;;;;;;5014332;28;20184;-91
2023/02/04 03:01:53;;;;;;;14.87;13.97;;;1.50;87.30;;;;;;5015207;28;20198;-91
2023/02/04 03:04:20;;;;;;;14.50;13.60;;;1.60;87.30;;;;;;5014130;28;20173;-90
2023/02/04 03:06:46;;;;;;;15.20;14.20;;;1.50;87.20;;;;;;5015195;28;20595;-91
2023/02/04 03:09:12;;;;;;;15.30;14.30;;;1.50;87.10;;;;;;5013975;28;20181;-90
2023/02/04 03:11:37;;;;;;;16.13;14.93;;;1.40;87.00;;;;;;5013830;28;20208;-91
2023/02/04 03:14:04;;;;;;;15.73;14.37;;;1.40;87.00;;;;;;5013888;28;20738;-91
2023/02/04 03:16:31;;;;;;;15.23;14.20;;;1.30;87.10;;;;;;5014006;28;20201;-90
2023/02/04 03:19:01;;;;;;;15.60;14.47;;;1.30;87.10;;;;;;5013783;28;20177;-90
2023/02/04 03:21:27;;;;;;;15.47;14.43;;;1.30;87.10;;;;;;5013717;28;20190;-90
2023/02/04 03:23:55;;;;;;;16.10;14.63;;;1.30;87.10;;;;;;5013632;28;20647;-90
2023/02/04 03:26:24;;;;;;;14.93;13.93;;;1.30;87.10;;;;;;5014433;28;20185;-91
2023/02/04 03:28:51;;;;;;;16.00;15.00;;;1.20;87.20;;;;;;5014601;28;20173;-90
2023/02/04 03:31:17;;;;;;;15.77;14.73;;;1.30;87.30;;;;;;5014323;28;20228;-91
2023/02/04 03:33:42;;;;;;;16.23;15.10;;;1.30;87.40;;;;;;5013447;28;20181;-91
2023/02/04 03:36:09;;;;;;;15.43;14.50;;;1.30;87.30;;;;;;5013413;28;20201;-91
2023/02/04 03:38:34;;;;;;;16.13;15.10;;;1.30;87.30;;;;;;5013657;28;20185;-90
2023/02/04 03:41:00;;;;;;;16.07;14.87;;;1.20;87.30;;;;;;5013208;28;20204;-91
2023/02/04 03:43:26;;;;;;;16.93;15.83;;;1.20;87.40;;;;;;5014537;28;20169;-90
2023/02/04 03:45:51;;;;;;;17.07;15.93;;;1.20;87.50;;;;;;5013429;28;20185;-90
2023/02/04 03:48:17;;;;;;;16.87;15.87;;;1.30;87.50;;;;;;5013212;28;20272;-91
2023/02/04 03:50:43;;;;;;;17.47;16.37;;;1.30;87.80;;;;;;5013126;28;20193;-91
2023/02/04 03:53:08;;;;;;;17.20;16.10;;;1.30;87.60;;;;;;5013302;28;20185;-91
2023/02/04 03:55:34;;;;;;;18.57;17.07;;;1.30;87.70;;;;;;5013253;28;20573;-91
2023/02/04 03:58:01;;;;;;;18.77;17.47;;;1.30;87.90;;;;;;5013536;28;20173;-91
2023/02/04 04:00:26;;;;;;;18.13;17.03;;;1.30;88.20;;;;;;5013410;28;20200;-91
2023/02/04 04:02:52;;;;;;;18.73;17.47;;;1.40;88.30;;;;;;5015070;28;20161;-91
2023/02/04 04:05:18;;;;;;;18.57;17.27;;;1.30;88.20;;;;;;5014533;28;20257;-91
2023/02/04 04:07:44;;;;;;;18.97;17.67;;;1.30;88.20;;;;;;5012901;28;20340;-90
2023/02/04 04:10:10;;;;;;;17.30;16.10;;;1.20;88.20;;;;;;5012856;28;20255;-91
2023/02/04 04:12:36;;;;;;;16.93;15.90;;;1.20;88.10;;;;;;5012977;28;20231;-91
2023/02/04 04:15:01;;;;;;;17.97;16.60;;;1.00;88.20;;;;;;5012597;28;20594;-91
2023/02/04 04:17:27;;;;;;;18.17;16.77;;;0.90;88.30;;;;;;5012622;28;20259;-91
2023/02/04 04:19:52;;;;;;;18.03;16.90;;;0.90;88.30;;;;;;5012606;28;20268;-91
2023/02/04 04:22:18;;;;;;;17.03;15.90;;;0.80;88.40;;;;;;5012651;28;20194;-90
2023/02/04 04:24:43;;;;;;;18.70;17.40;;;0.70;88.30;;;;;;5012558;28;20181;-90
2023/02/04 04:27:09;;;;;;;20.00;18.63;;;0.60;88.30;;;;;;5013818;28;20650;-90
2023/02/04 04:29:34;;;;;;;19.97;18.63;;;0.50;88.50;;;;;;5012556;28;20235;-90
2023/02/04 04:32:00;;;;;;;20.87;19.43;;;0.40;88.60;;;;;;5012521;28;20283;-90
2023/02/04 04:34:25;;;;;;;19.77;18.57;;;0.40;89.00;;;;;;5012613;28;20178;-90
2023/02/04 04:36:51;;;;;;;19.50;18.03;;;0.40;89.30;;;;;;5012390;28;20207;-90
2023/02/04 04:39:16;;;;;;;18.30;16.87;;;0.40;89.40;;;;;;5012365;28;20173;-90
2023/02/04 04:41:42;;;;;;;18.90;17.23;;;0.40;89.50;;;;;;5011718;28;20199;-90
2023/02/04 04:44:07;;;;;;;18.33;17.10;;;0.30;89.60;;;;;;5012311;28;20178;-90
2023/02/04 04:46:33;;;;;;;18.67;17.40;;;0.30;89.60;;;;;;5012281;28;20553;-90
2023/02/04 04:48:58;;;;;;;18.73;17.53;;;0.30;89.80;;;;;;5012363;28;20179;-90
2023/02/04 04:51:24;;;;;;;18.93;17.30;;;0.30;89.90;;;;;;5013419;28;20326;-90
2023/02/04 04:53:49;;;;;;;17.77;16.47;;;0.30;89.90;;;;;;5012308;28;20181;-90
2023/02/04 04:56:15;;;;;;;17.43;16.23;;;0.40;90.00;;;;;;5012220;28;20741;-90
2023/02/04 04:58:41;;;;;;;17.67;16.33;;;0.50;90.10;;;;;;5012176;28;20274;-90
2023/02/04 05:01:06;;;;;;;18.57;17.23;;;0.40;90.00;;;;;;5012155;28;20335;-91
2023/02/04 05:03:32;;;;;;;17.97;16.57;;;0.50;90.10;;;;;;5012234;28;20181;-90
2023/02/04 05:05:57;;;;;;;17.63;16.53;;;0.60;90.00;;;;;;5012800;28;20260;-89
2023/02/04 05:08:23;;;;;;;19.33;17.43;;;0.70;90.00;;;;;;5012085;28;20553;-90
2023/02/04 05:10:48;;;;;;;17.93;16.60;;;0.60;89.80;;;;;;5012774;28;20214;-90
2023/02/04 05:13:14;;;;;;;17.27;15.87;;;0.60;89.70;;;;;;5012121;28;20234;-90
2023/02/04 05:15:39;;;;;;;17.47;15.97;;;0.60;89.70;;;;;;5013226;28;20587;-90
2023/02/04 05:18:05;;;;;;;16.70;15.20;;;0.60;89.60;;;;;;5013286;28;20165;-90
2023/02/04 05:20:31;;;;;;;15.20;14.10;;;0.60;89.60;;;;;;5012047;28;20196;-91
2023/02/04 05:22:59;;;;;;;15.83;14.67;;;0.60;89.60;;;;;;5012028;28;20734;-89
2023/02/04 05:25:26;;;;;;;16.83;15.30;;;0.60;89.70;;;;;;5013495;28;20177;-89
2023/02/04 05:27:52;;;;;;;16.13;14.70;;;0.60;89.70;;;;;;5013489;28;20242;-90
2023/02/04 05:30:17;;;;;;;17.17;15.53;;;0.70;89.80;;;;;;5012053;28;20490;-91
2023/02/04 05:32:43;;;;;;;17.37;15.87;;;0.80;89.70;;;;;;5012797;28;20242;-91
2023/02/04 05:35:08;;;;;;;17.53;16.20;;;0.90;89.50;;;;;;5014079;28;20201;-90
2023/02/04 05:37:34;;;;;;;16.10;14.87;;;0.80;89.30;;;;;;5013108;28;20185;-90
2023/02/04 05:39:59;;;;;;;18.57;17.33;;;0.80;89.10;;;;;;5015580;28;20197;-90
2023/02/04 05:42:25;;;;;;;19.00;17.60;;;0.80;89.10;;;;;;5012658;28;20205;-89
2023/02/04 05:44:50;;;;;;;20.07;18.57;;;0.80;89.10;;;;;;5012191;28;20223;-90
2023/02/04 05:47:17;;;;;;;20.20;18.70;;;0.80;89.30;;;;;;5012350;28;20177;-91
2023/02/04 05:49:43;;;;;;;18.40;17.20;;;0.80;89.40;;;;;;5013969;28;20177;-90
2023/02/04 05:52:08;;;;;;;20.00;18.67;;;0.80;89.50;;;;;;5015467;28;20338;-91
2023/02/04 05:54:34;;;;;;;20.57;18.97;;;0.80;89.60;;;;;;5016914;28;20180;-91
2023/02/04 05:56:59;;;;;;;19.57;18.17;;;0.90;89.70;;;;;;5016451;28;20181;-91
2023/02/04 05:59:25;;;;;;;20.63;18.20;;;0.90;89.70;;;;;;5017173;28;20185;-91
2023/02/04 06:01:50;;;;;;;19.63;18.03;;;0.90;89.80;;;;;;5016412;28;20212;-90
2023/02/04 06:04:16;;;;;;;18.10;16.80;;;1.00;89.80;;;;;;5016381;28;20188;-92
2023/02/04 06:06:42;;;;;;;19.75;18.33;;;1.00;89.80;;;;;;5019531;28;20415;-91
2023/02/04 06:09:08;;;;;;;19.97;18.30;;;1.00;89.70;;;;;;5019907;28;20633;-91
2023/02/04 06:11:34;;;;;;;20.40;18.83;;;1.00;89.70;;;;;;5017225;28;20625;-91
2023/02/04 06:13:59;;;;;;;19.67;18.33;;;1.00;89.60;;;;;;5017362;28;20184;-92
2023/02/04 06:16:25;;;;;;;21.87;19.70;;;0.90;89.70;;;;;;5016424;28;20292;-89
2023/02/04 06:18:51;;;;;;;21.07;19.67;;;0.90;89.80;;;;;;5016259;28;20226;-91
2023/02/04 06:21:16;;;;;;;19.20;17.80;;;0.90;89.90;;;;;;5018376;28;20239;-90
2023/02/04 06:23:42;;;;;;;20.67;18.80;;;0.90;89.80;;;;;;5019525;28;20180;-90
2023/02/04 06:26:08;;;;;;;20.57;19.10;;;0.80;89.90;;;;;;5018311;28;20173;-91
2023/02/04 06:28:33;;;;;;;19.70;18.23;;;0.90;90.00;;;;;;5015725;28;20185;-89
2023/02/04 06:30:59;;;;;;;20.00;18.60;;;0.90;90.00;;;;;;5015154;28;20202;-89
2023/02/04 06:33:24;;;;;;;20.50;18.87;;;0.90;90.10;;;;;;5015792;28;20208;-90
2023/02/04 06:35:50;;;;;;;21.63;19.50;;;0.80;90.10;;;;;;5015080;28;20235;-91
2023/02/04 06:38:16;;;;;;;19.70;18.20;;;0.80;90.10;;;;;;5015267;28;20278;-90
2023/02/04 06:40:42;;;;;;;21.20;19.63;;;0.80;90.20;;;;;;5014751;28;20195;-91
2023/02/04 06:43:07;;;;;;;19.80;18.30;;;0.80;90.20;;;;;;5016142;28;20187;-90
2023/02/04 06:45:33;;;;;;;20.43;19.03;;;0.80;90.20;;;;;;5015742;28;20192;-91
2023/02/04 06:47:58;;;;;;;20.60;18.80;;;0.80;90.20;;;;;;5015244;28;20189;-90
2023/02/04 06:50:24;;;;;;;21.57;20.07;;;0.70;90.30;;;;;;5016548;28;20201;-94
2023/02/04 06:52:49;;;;;;;21.37;19.53;;;0.80;90.40;;;;;;5017131;28;20192;-93
2023/02/04 06:55:16;;;;;;;21.37;19.63;;;0.90;90.40;;;;;;5016691;28;20208;-94
2023/02/04 06:57:42;;;;;;;20.57;18.97;;;0.90;90.50;;;;;;5016945;28;20181;-93
2023/02/04 07:00:10;;;;;;;20.57;18.87;;;0.90;90.40;;;;;;5016912;28;20217;-93
2023/02/04 07:02:36;;;;;;;21.00;19.23;;;0.80;90.40;;;;;;5017457;28;20238;-94
2023/02/04 07:05:02;;;;;;;19.60;18.23;;;0.80;90.40;;;;;;5016079;28;20181;-93
2023/02/04 07:07:28;;;;;;;19.37;17.80;;;0.80;90.50;;;;;;5016608;28;20179;-93
2023/02/04 07:09:53;;;;;;;20.63;19.10;;;0.80;90.50;;;;;;5016644;28;20228;-93
2023/02/04 07:12:19;;;;;;;20.97;19.27;;;0.80;90.50;;;;;;5015952;28;20205;-93
2023/02/04 07:14:46;;;;;;;20.27;18.97;;;0.80;90.60;;;;;;5016322;28;20288;-93
2023/02/04 07:17:11;;;;;;;19.63;17.83;;;0.90;90.60;;;;;;5015880;28;20702;-93
2023/02/04 07:19:37;;;;;;;20.67;18.67;;;0.90;90.50;;;;;;5015758;28;20659;-93
2023/02/04 07:22:03;;;;;;;20.57;18.83;;;0.80;90.60;;;;;;5015502;28;20634;-93
2023/02/04 07:24:29;;;;;;;21.33;19.93;;;0.90;90.60;;;;;;5015467;28;20181;-93
2023/02/04 07:26:55;;;;;;;21.87;19.90;;;0.90;90.60;;;;;;5015652;28;20188;-93
2023/02/04 07:29:20;;;;;;;20.20;18.80;;;0.90;90.70;;;;;;5015016;28;20178;-92
2023/02/04 07:31:46;;;;;;;19.10;17.73;;;0.90;90.70;;;;;;5015820;28;20208;-93
2023/02/04 07:34:13;;;;;;;20.57;19.17;;;0.90;90.70;;;;;;5015702;28;20242;-93
2023/02/04 07:36:39;;;;;;;20.67;19.00;;;0.90;90.60;;;;;;5015377;28;20207;-93
2023/02/04 07:39:05;;;;;;;21.67;20.17;;;0.90;90.50;;;;;;5015264;28;20180;-93
2023/02/04 07:41:30;;;;;;;21.53;20.13;;;0.90;90.50;;;;;;5015612;28;20308;-94
2023/02/04 07:43:56;;;;;;;22.20;20.57;;;0.90;90.60;;;;;;5015387;28;20647;-93
2023/02/04 07:46:21;;;;;;;23.33;21.40;;;0.90;90.60;;;;;;5015827;28;20184;-93
2023/02/04 07:48:47;;;;;;;21.17;19.60;;;0.90;90.60;;;;;;5016055;28;20200;-93
2023/02/04 07:51:12;;;;;;;21.23;19.67;;;1.00;90.50;;;;;;5015584;28;20201;-93
2023/02/04 07:53:38;;;;;;;21.80;19.97;;;1.00;90.50;;;;;;5015719;28;20235;-93
2023/02/04 07:56:04;;;;;;;21.80;20.13;;;1.00;90.40;;;;;;5015425;28;20221;-93
2023/02/04 07:58:29;;;;;;;20.83;19.33;;;1.00;90.30;;;;;;5015517;28;20314;-93
2023/02/04 08:00:55;;;;;;;23.37;21.47;;;1.00;90.20;;;;;;5015523;28;20219;-93
2023/02/04 08:03:21;;;;;;;22.50;20.70;;;1.00;90.10;;;;;;5015202;28;20185;-93
2023/02/04 08:05:46;;;;;;;23.00;20.90;;;1.00;90.00;;;;;;5015417;28;20195;-93
2023/02/04 08:08:12;;;;;;;23.73;21.97;;;0.90;89.90;;;;;;5014660;28;20232;-93
2023/02/04 08:10:37;;;;;;;24.23;22.33;;;0.90;90.00;;;;;;5015072;28;20601;-92
2023/02/04 08:13:03;;;;;;;23.80;22.20;;;0.80;90.10;;;;;;5015061;28;20189;-93
2023/02/04 08:15:28;;;;;;;25.33;23.73;;;0.80;90.20;;;;;;5014162;28;20740;-93
2023/02/04 08:17:54;;;;;;;24.73;22.97;;;0.80;90.40;;;;;;5014755;28;20560;-93
2023/02/04 08:20:19;;;;;;;26.63;24.80;;;0.80;90.50;;;;;;5014494;28;20643;-93
2023/02/04 08:22:45;;;;;;;27.53;25.70;;;0.80;90.60;;;;;;5015112;28;20180;-93
2023/02/04 08:25:11;;;;;;;27.17;25.20;;;0.80;90.70;;;;;;5014538;28;20259;-93
2023/02/04 08:27:37;;;;;;;28.93;26.40;;;0.80;90.80;;;;;;5014241;28;20184;-94
2023/02/04 08:30:04;;;;;;;26.27;24.13;;;0.90;90.90;;;;;;5015060;28;20270;-93
2023/02/04 08:32:30;;;;;;;28.33;26.43;;;0.90;91.00;;;;;;5014631;28;20275;-93
2023/02/04 08:34:59;;;;;;;29.73;27.60;;;1.00;91.10;;;;;;5014755;28;20256;-93
2023/02/04 08:37:24;;;;;;;28.87;26.80;;;1.10;91.20;;;;;;5015882;28;20185;-93
2023/02/04 08:39:50;;;;;;;29.40;27.40;;;1.10;91.20;;;;;;5016177;28;20184;-93
2023/02/04 08:42:16;;;;;;;28.63;26.57;;;1.20;91.30;;;;;;5017347;28;20207;-93
2023/02/04 08:44:42;;;;;;;25.20;23.43;;;1.20;91.30;;;;;;5017929;28;20219;-92
2023/02/04 08:47:08;;;;;;;28.73;26.50;;;1.30;91.30;;;;;;5018624;28;20235;-93
2023/02/04 08:49:35;;;;;;;26.73;24.70;;;1.30;91.30;;;;;;5018498;28;20181;-93
2023/02/04 08:52:01;;;;;;;27.67;25.87;;;1.30;91.30;;;;;;5018127;28;20208;-92
2023/02/04 08:54:27;;;;;;;26.43;24.53;;;1.30;91.20;;;;;;5019515;28;20542;-93
2023/02/04 08:56:53;;;;;;;25.60;23.73;;;1.30;91.20;;;;;;5020790;28;20207;-94
2023/02/04 08:59:20;;;;;;;24.90;22.97;;;1.40;91.30;;;;;;5021171;28;20180;-93
2023/02/04 09:01:48;;;;;;;26.30;23.70;;;1.40;91.20;;;;;;5021583;28;20221;-93
2023/02/04 09:04:14;;;;;;;26.33;24.33;;;1.50;91.30;;;;;;5020950;28;20174;-94
2023/02/04 09:06:39;;;;;;;29.70;27.63;;;1.50;91.30;;;;;;5020836;28;20658;-93
2023/02/04 09:09:05;;;;;;;29.57;27.27;;;1.60;91.40;;;;;;5021297;28;20256;-94
2023/02/04 09:11:30;;;;;;;30.87;28.77;;;1.80;91.50;;;;;;5023040;28;20201;-93
2023/02/04 09:13:56;;;;;;;30.70;28.33;;;1.80;91.50;;;;;;5022115;28;20181;-93
2023/02/04 09:16:22;;;;;;;29.27;27.20;;;1.90;91.50;;;;;;5022400;28;20212;-93
2023/02/04 09:18:47;;;;;;;25.57;23.80;;;1.90;91.50;;;;;;5022572;28;20181;-93
2023/02/04 09:21:13;;;;;;;26.20;24.37;;;2.10;91.50;;;;;;5024837;28;20194;-93
2023/02/04 09:23:38;;;;;;;22.93;21.17;;;2.20;91.30;;;;;;5026102;28;20197;-93
2023/02/04 09:26:05;;;;;;;28.07;26.27;;;2.30;91.20;;;;;;5026020;28;20186;-93
2023/02/04 09:28:31;;;;;;;26.97;25.07;;;2.30;90.90;;;;;;5031121;28;20275;-93
2023/02/04 09:30:56;;;;;;;28.37;26.17;;;2.50;90.60;;;;;;5033887;28;20671;-93
2023/02/04 09:33:22;;;;;;;24.27;22.27;;;2.60;90.30;;;;;;5034947;28;20177;-93
2023/02/04 09:35:48;;;;;;;24.37;22.67;;;2.70;89.90;;;;;;5037425;28;20205;-93
2023/02/04 09:38:14;;;;;;;21.70;20.20;;;2.90;89.60;;;;;;5278044;22;20233;-92
2023/02/04 09:40:46;;;;;;;21.37;19.63;;;2.90;89.10;;;;;;5057295;28;20184;-93
2023/02/04 09:43:17;;;;;;;20.20;18.60;;;3.00;88.50;;;;;;5058011;28;20168;-93
2023/02/04 09:45:43;;;;;;;20.47;18.93;;;3.00;88.00;;;;;;5058335;28;20220;-92
2023/02/04 09:48:11;;;;;;;21.83;20.20;;;3.10;87.40;;;;;;5057837;28;20184;-93
2023/02/04 09:50:37;;;;;;;20.40;18.97;;;3.20;87.10;;;;;;5057633;28;20183;-93
2023/02/04 09:53:05;;;;;;;18.50;17.10;;;3.30;86.70;;;;;;5059785;28;20177;-92
2023/02/04 09:55:34;;;;;;;18.67;17.37;;;3.40;86.10;;;;;;5060301;28;20224;-92
2023/02/04 09:57:59;;;;;;;18.30;16.70;;;3.50;85.90;;;;;;5060816;28;20177;-91
2023/02/04 10:00:27;;;;;;;18.40;17.03;;;3.60;85.60;;;;;;5061073;28;20181;-92
2023/02/04 10:02:53;;;;;;;18.47;16.90;;;3.80;85.60;;;;;;5061066;28;20178;-92
2023/02/04 10:05:37;;;;;;;17.77;16.43;;;3.80;84.90;;;;;;5061253;28;20241;-92
2023/02/04 10:08:04;;;;;;;17.93;16.63;;;3.90;84.40;;;;;;5061144;28;20167;-89
2023/02/04 10:10:30;;;;;;;17.97;16.47;;;3.90;83.70;;;;;;5061001;28;20209;-91
2023/02/04 10:13:01;;;;;;;18.30;17.13;;;4.00;83.50;;;;;;5061104;28;20164;-90
2023/02/04 10:15:27;;;;;;;19.27;17.80;;;3.90;83.00;;;;;;5061003;28;20233;-92
2023/02/04 10:18:00;;;;;;;19.53;18.13;;;4.00;82.60;;;;;;5061024;28;20161;-91
2023/02/04 10:20:26;;;;;;;19.17;17.67;;;4.00;82.70;;;;;;5060862;28;20210;-92
2023/02/04 10:22:53;;;;;;;20.20;18.90;;;4.00;82.40;;;;;;5060893;28;20172;-92
2023/02/04 10:25:22;;;;;;;19.60;18.30;;;4.10;82.70;;;;;;5060831;28;20154;-91
2023/02/04 10:27:56;;;;;;;20.30;18.80;;;4.10;82.30;;;;;;5060792;28;20148;-91
2023/02/04 10:30:24;;;;;;;20.17;18.77;;;4.20;82.40;;;;;;5060692;28;20156;-92
2023/02/04 10:32:50;;;;;;;20.43;18.83;;;4.20;81.90;;;;;;5060690;28;20157;-91
2023/02/04 10:35:18;;;;;;;20.30;19.00;;;4.40;81.70;;;;;;5060475;28;20258;-92
2023/02/04 10:37:44;;;;;;;19.70;18.20;;;4.50;81.30;;;;;;5060316;28;20201;-91
2023/02/04 10:40:29;;;;;;;19.60;18.20;;;4.50;80.80;;;;;;5059684;28;20149;-92
2023/02/04 10:42:54;;;;;;;19.17;17.87;;;4.50;80.60;;;;;;5060550;28;20183;-92
2023/02/04 10:45:29;;;;;;;20.00;18.53;;;4.60;80.50;;;;;;5060395;28;20160;-90
2023/02/04 10:47:56;;;;;;;21.13;19.47;;;4.60;80.30;;;;;;5060397;28;20157;-92
2023/02/04 10:50:24;;;;;;;20.63;19.23;;;4.60;79.90;;;;;;5060287;28;20157;-94
2023/02/04 10:52:54;;;;;;;20.47;19.07;;;4.60;79.90;;;;;;5060289;28;20227;-92
2023/02/04 10:55:22;;;;;;;21.70;19.97;;;4.60;79.90;;;;;;5060183;28;20194;-91
2023/02/04 10:57:51;;;;;;;19.67;18.27;;;4.70;80.00;;;;;;5060129;28;20149;-92
2023/02/04 11:00:22;;;;;;;19.80;18.40;;;4.60;79.20;;;;;;5060141;28;20159;-93
2023/02/04 11:03:04;;;;;;;19.90;18.57;;;4.50;79.40;;;;;;5060115;28;21155;-93
2023/02/04 11:05:34;;;;;;;20.30;18.80;;;4.50;79.40;;;;;;5060102;28;20156;-93
2023/02/04 11:08:00;;;;;;;14.43;13.33;;;4.60;79.50;;;;;;5060025;28;20175;-92
2023/02/04 11:10:31;;;;;;;15.73;14.63;;;4.60;79.30;;;;;;5059923;28;20176;-93
2023/02/04 11:12:57;;;;;;;15.20;14.10;;;4.60;78.70;;;;;;5059928;28;20209;-93
2023/02/04 11:15:47;;;;;;;15.83;14.60;;;4.60;79.20;;;;;;5059765;28;20200;-91
2023/02/04 11:18:19;;;;;;;14.97;13.57;;;4.70;79.70;;;;;;5059884;28;20176;-91
2023/02/04 11:20:50;;;;;;;14.40;13.50;;;4.70;79.30;;;;;;5059652;28;20251;-93
2023/02/04 11:23:29;;;;;;;15.27;14.00;;;4.70;78.80;;;;;;5246252;22;20211;-93
2023/02/04 11:26:09;;;;;;;14.80;13.60;;;4.70;78.80;;;;;;5039818;28;20232;-92
2023/02/04 11:28:59;;;;;;;12.67;11.87;;;4.80;79.50;;;;;;5039717;28;20167;-92
2023/02/04 11:31:25;;;;;;;14.50;13.30;;;4.80;78.70;;;;;;5039689;28;20188;-94
2023/02/04 11:34:14;;;;;;;15.57;14.40;;;4.70;78.40;;;;;;5039653;28;20158;-92
2023/02/04 11:37:01;;;;;;;14.77;13.53;;;4.80;78.60;;;;;;5039566;28;20181;-93
2023/02/04 11:39:40;;;;;;;13.50;12.47;;;4.90;79.00;;;;;;5039583;28;20148;-91
2023/02/04 11:42:21;;;;;;;13.80;12.90;;;4.90;78.30;;;;;;5039462;28;20185;-92
2023/02/04 11:45:01;;;;;;;14.77;13.47;;;4.90;77.80;;;;;;5039508;28;20211;-93
2023/02/04 11:47:34;;;;;;;15.47;14.20;;;4.90;77.60;;;;;;5039530;28;20157;-91
2023/02/04 11:50:10;;;;;;;14.07;13.07;;;4.90;77.90;;;;;;5039265;28;20156;-92
2023/02/04 11:52:36;;;;;;;14.23;13.03;;;4.90;77.70;;;;;;5039383;28;20152;-91
2023/02/04 11:55:02;;;;;;;14.40;13.03;;;4.90;77.00;;;;;;5039230;28;20172;-93
2023/02/04 11:57:27;;;;;;;15.83;14.37;;;4.90;76.70;;;;;;5039313;28;20165;-92
2023/02/04 11:59:53;;;;;;;15.27;14.07;;;5.00;76.50;;;;;;5039201;28;20169;-92
2023/02/04 12:02:22;;;;;;;15.80;14.40;;;5.10;76.80;;;;;;5039147;28;20180;-92
2023/02/04 12:04:56;;;;;;;15.30;14.20;;;5.30;77.00;;;;;;5039185;28;20159;-93
2023/02/04 12:07:28;;;;;;;15.50;14.30;;;5.20;76.10;;;;;;5039052;28;20176;-93
2023/02/04 12:09:54;;;;;;;15.47;14.03;;;5.30;76.10;;;;;;5038939;28;20173;-92
2023/02/04 12:12:29;;;;;;;16.20;14.70;;;5.30;75.30;;;;;;5038998;28;20195;-92
2023/02/04 12:15:03;;;;;;;16.23;14.83;;;5.40;75.30;;;;;;5038939;28;20156;-93
2023/02/04 12:17:29;;;;;;;16.00;14.67;;;5.50;75.40;;;;;;5039027;28;20168;-93
2023/02/04 12:19:54;;;;;;;16.63;15.13;;;5.50;75.80;;;;;;5038867;28;20173;-93
2023/02/04 12:22:20;;;;;;;14.80;13.70;;;5.50;75.40;;;;;;5038804;28;20193;-92
2023/02/04 12:24:45;;;;;;;16.43;14.60;;;5.70;75.80;;;;;;5038721;28;20187;-93
2023/02/04 12:27:11;;;;;;;15.60;14.40;;;5.70;75.20;;;;;;5038785;28;20150;-92
2023/02/04 12:29:36;;;;;;;15.47;14.07;;;5.70;75.50;;;;;;5038785;28;20450;-92
2023/02/04 12:32:02;;;;;;;16.20;15.00;;;5.80;76.20;;;;;;5038708;28;20262;-92
2023/02/04 12:34:28;;;;;;;18.20;16.90;;;6.00;76.40;;;;;;5038713;28;20153;-91